createdAt,value
2023-01-12T00:02:11.731Z,7.75
2023-01-12T00:04:39.589Z,8.68
2023-01-12T00:07:08.263Z,8.15
2023-01-12T00:09:35.917Z,10.00
2023-01-12T00:12:07.291Z,9.07
2023-01-12T00:14:35.335Z,6.90
2023-01-12T00:17:02.753Z,5.85
2023-01-12T00:19:30.392Z,5.55
2023-01-12T00:21:58.514Z,6.47
2023-01-12T00:24:27.250Z,7.53
2023-01-12T00:26:55.218Z,6.93
2023-01-12T00:29:23.300Z,5.70
2023-01-12T00:31:50.691Z,6.53
2023-01-12T00:34:18.132Z,5.90
2023-01-12T00:36:46.241Z,5.82
2023-01-12T00:39:14.025Z,5.80
2023-01-12T00:42:00.690Z,5.82
2023-01-12T00:44:46.744Z,5.30
2023-01-12T00:47:14.648Z,5.25
2023-01-12T00:49:42.514Z,5.20
2023-01-12T00:52:18.203Z,5.15
2023-01-12T00:54:53.004Z,5.07
2023-01-12T00:57:20.420Z,3.70
2023-01-12T00:59:47.747Z,3.50
2023-01-12T01:02:15.211Z,2.75
2023-01-12T01:04:42.614Z,2.28
2023-01-12T01:07:09.912Z,2.70
2023-01-12T01:09:37.271Z,2.97
2023-01-12T01:12:04.623Z,3.33
2023-01-12T01:14:32.031Z,4.30
2023-01-12T01:16:59.439Z,4.15
2023-01-12T01:19:26.774Z,3.75
2023-01-12T01:21:54.058Z,4.57
2023-01-12T01:24:21.456Z,5.00
2023-01-12T01:26:50.316Z,3.85
2023-01-12T01:29:17.808Z,4.00
2023-01-12T01:31:47.639Z,3.97
2023-01-12T01:34:15.224Z,5.13
2023-01-12T01:36:42.742Z,3.75
2023-01-12T01:39:10.155Z,2.78
2023-01-12T01:41:37.527Z,2.17
2023-01-12T01:44:06.201Z,1.80
2023-01-12T01:46:39.631Z,1.83
2023-01-12T01:49:11.233Z,1.70
2023-01-12T01:51:38.611Z,16.55
2023-01-12T01:54:06.277Z,1.73
2023-01-12T01:56:34.020Z,1.30
2023-01-12T01:59:08.814Z,1.50
2023-01-12T02:01:36.446Z,1.52
2023-01-12T02:04:03.928Z,1.70
2023-01-12T02:06:31.865Z,1.23
2023-01-12T02:09:01.188Z,1.30
2023-01-12T02:11:47.839Z,1.52
2023-01-12T02:14:33.816Z,1.20
2023-01-12T02:17:20.051Z,1.10
2023-01-12T02:19:47.342Z,1.20
2023-01-12T02:22:14.688Z,1.17
2023-01-12T02:24:44.835Z,1.15
2023-01-12T02:27:24.433Z,1.27
2023-01-12T02:30:13.996Z,1.63
2023-01-12T02:32:48.739Z,2.00
2023-01-12T02:35:21.834Z,2.25
2023-01-12T02:37:54.851Z,2.25
2023-01-12T02:40:26.445Z,2.33
2023-01-12T02:43:04.616Z,1.75
2023-01-12T02:45:34.975Z,1.30
2023-01-12T02:48:22.064Z,1.42
2023-01-12T02:50:55.864Z,1.25
2023-01-12T02:53:26.049Z,1.00
2023-01-12T02:55:53.844Z,2.30
2023-01-12T02:58:22.469Z,1.55
2023-01-12T03:00:51.384Z,1.67
2023-01-12T03:03:19.385Z,1.60
2023-01-12T03:05:47.587Z,1.25
2023-01-12T03:08:24.977Z,1.20
2023-01-12T03:11:07.584Z,1.20
2023-01-12T03:13:36.627Z,1.50
2023-01-12T03:16:05.781Z,1.10
2023-01-12T03:18:49.360Z,1.85
2023-01-12T03:21:21.465Z,1.73
2023-01-12T03:26:18.111Z,1.30
2023-01-12T03:28:47.606Z,2.28
2023-01-12T03:31:15.523Z,2.17
2023-01-12T03:33:43.809Z,1.73
2023-01-12T03:36:11.512Z,1.80
2023-01-12T03:38:51.150Z,1.95
2023-01-12T03:41:27.354Z,1.80
2023-01-12T03:43:58.142Z,1.45
2023-01-12T03:46:28.163Z,1.60
2023-01-12T03:48:58.706Z,1.58
2023-01-12T03:51:28.003Z,1.50
2023-01-12T03:53:57.232Z,1.65
2023-01-12T03:56:26.252Z,1.40
2023-01-12T03:58:53.935Z,1.80
2023-01-12T04:01:21.347Z,1.48
2023-01-12T04:03:48.748Z,1.73
2023-01-12T04:06:16.153Z,1.90
2023-01-12T04:08:43.491Z,1.75
2023-01-12T04:11:29.434Z,1.83
2023-01-12T04:13:56.904Z,1.60
2023-01-12T04:16:24.242Z,1.67
2023-01-12T04:18:51.590Z,1.90
2023-01-12T04:21:37.384Z,1.90
2023-01-12T04:24:04.778Z,2.10
2023-01-12T04:26:32.184Z,2.10
2023-01-12T04:28:59.519Z,2.05
2023-01-12T04:31:26.948Z,2.17
2023-01-12T04:33:54.415Z,2.17
2023-01-12T04:36:21.692Z,2.30
2023-01-12T04:38:49.163Z,2.33
2023-01-12T04:41:16.465Z,2.30
2023-01-12T04:43:43.823Z,2.10
2023-01-12T04:46:11.607Z,2.05
2023-01-12T04:48:40.609Z,1.90
2023-01-12T04:51:07.941Z,1.95
2023-01-12T04:53:35.353Z,1.98
2023-01-12T04:56:06.330Z,2.10
2023-01-12T04:58:34.946Z,2.28
2023-01-12T05:01:12.581Z,1.98
2023-01-12T05:03:40.110Z,2.15
2023-01-12T05:06:07.619Z,2.25
2023-01-12T05:08:53.739Z,1.73
2023-01-12T05:11:38.593Z,2.40
2023-01-12T05:14:06.195Z,2.60
2023-01-12T05:16:33.573Z,2.60
2023-01-12T05:19:00.960Z,2.03
2023-01-12T05:21:28.248Z,1.98
2023-01-12T05:23:55.690Z,2.25
2023-01-12T05:26:23.077Z,2.10
2023-01-12T05:28:51.430Z,2.85
2023-01-12T05:31:19.629Z,2.60
2023-01-12T05:33:47.363Z,2.45
2023-01-12T05:36:15.599Z,2.60
2023-01-12T05:38:43.010Z,2.53
2023-01-12T05:41:16.100Z,2.25
2023-01-12T05:43:53.159Z,2.40
2023-01-12T05:46:28.099Z,2.75
2023-01-12T05:48:56.275Z,2.30
2023-01-12T05:51:25.085Z,2.70
2023-01-12T05:53:52.559Z,2.70
2023-01-12T05:56:21.134Z,2.35
2023-01-12T05:58:52.643Z,2.40
2023-01-12T06:01:20.660Z,2.40
2023-01-12T06:03:55.534Z,2.63
2023-01-12T06:06:23.530Z,2.10
2023-01-12T06:08:52.714Z,2.50
2023-01-12T06:11:39.353Z,2.28
2023-01-12T06:14:07.216Z,2.35
2023-01-12T06:16:37.275Z,2.10
2023-01-12T06:19:04.841Z,2.13
2023-01-12T06:21:32.985Z,3.00
2023-01-12T06:24:00.900Z,3.05
2023-01-12T06:26:28.437Z,2.63
2023-01-12T06:28:55.845Z,2.53
2023-01-12T06:31:23.181Z,2.75
2023-01-12T06:33:50.543Z,2.97
2023-01-12T06:36:17.864Z,3.35
2023-01-12T06:38:45.187Z,3.40
2023-01-12T06:41:32.562Z,3.90
2023-01-12T06:44:00.053Z,3.47
2023-01-12T06:46:27.998Z,3.83
2023-01-12T06:48:56.266Z,3.80
2023-01-12T06:51:23.627Z,3.40
2023-01-12T06:53:50.985Z,3.33
2023-01-12T06:56:18.353Z,3.53
2023-01-12T06:58:45.776Z,3.30
2023-01-12T07:01:13.850Z,2.90
2023-01-12T07:03:41.632Z,4.25
2023-01-12T07:06:08.938Z,2.85
2023-01-12T07:08:36.609Z,2.88
2023-01-12T07:11:04.681Z,3.10
2023-01-12T07:13:32.536Z,3.60
2023-01-12T07:16:00.825Z,2.83
2023-01-12T07:18:29.219Z,3.40
2023-01-12T07:20:56.548Z,3.53
2023-01-12T07:23:24.019Z,2.70
2023-01-12T07:25:51.542Z,3.05
2023-01-12T07:28:18.876Z,3.03
2023-01-12T07:30:46.289Z,3.25
2023-01-12T07:33:15.753Z,3.00
2023-01-12T07:35:44.720Z,3.00
2023-01-12T07:38:12.125Z,3.00
2023-01-12T07:40:39.509Z,3.95
2023-01-12T07:43:07.979Z,12.40
2023-01-12T07:45:36.641Z,6.93
2023-01-12T07:48:04.262Z,6.78
2023-01-12T07:50:31.743Z,9.07
2023-01-12T07:53:02.432Z,6.28
2023-01-12T07:55:30.794Z,6.03
2023-01-12T07:57:59.443Z,4.55
2023-01-12T08:00:27.443Z,9.55
2023-01-12T08:02:56.236Z,4.05
2023-01-12T08:05:24.120Z,4.93
2023-01-12T08:07:51.517Z,4.82
2023-01-12T08:10:19.162Z,5.38
2023-01-12T08:12:46.539Z,5.03
2023-01-12T08:15:13.835Z,4.65
2023-01-12T08:17:44.486Z,4.05
2023-01-12T08:20:16.758Z,4.00
2023-01-12T08:22:46.298Z,3.90
2023-01-12T08:25:15.513Z,3.72
2023-01-12T08:27:45.939Z,3.75
2023-01-12T08:30:15.825Z,3.33
2023-01-12T08:32:43.375Z,3.55
2023-01-12T08:35:12.839Z,3.47
2023-01-12T08:37:40.404Z,3.85
2023-01-12T08:40:08.397Z,3.53
2023-01-12T08:42:35.806Z,3.03
2023-01-12T08:45:03.289Z,3.20
2023-01-12T08:47:30.830Z,3.28
2023-01-12T08:50:02.921Z,3.58
2023-01-12T08:52:31.839Z,3.33
2023-01-12T08:54:59.272Z,3.30
2023-01-12T08:57:26.624Z,3.30
2023-01-12T08:59:53.937Z,3.67
2023-01-12T09:02:21.483Z,3.30
2023-01-12T09:04:49.544Z,3.95
2023-01-12T09:07:17.120Z,3.90
2023-01-12T09:09:44.414Z,3.70
2023-01-12T09:12:11.738Z,3.17
2023-01-12T09:14:39.244Z,2.58
2023-01-12T09:17:07.737Z,2.17
2023-01-12T09:19:35.263Z,2.40
2023-01-12T09:22:02.833Z,1.95
2023-01-12T09:24:30.127Z,2.00
2023-01-12T09:26:57.591Z,1.70
2023-01-12T09:29:24.977Z,1.67
2023-01-12T09:31:52.355Z,1.70
2023-01-12T09:34:19.779Z,2.30
2023-01-12T09:36:48.816Z,1.67
2023-01-12T09:39:27.355Z,1.33
2023-01-12T09:42:14.623Z,1.38
2023-01-12T09:45:02.144Z,1.08
2023-01-12T09:47:48.394Z,1.40
2023-01-12T09:50:20.350Z,2.40
2023-01-12T09:55:20.163Z,1.50
2023-01-12T09:57:50.561Z,1.38
2023-01-12T10:00:18.761Z,1.30
2023-01-12T10:02:48.244Z,1.33
2023-01-12T10:05:26.087Z,1.50
2023-01-12T10:07:58.882Z,1.55
2023-01-12T10:10:26.256Z,1.67
2023-01-12T10:12:59.158Z,1.70
2023-01-12T10:15:48.503Z,1.90
2023-01-12T10:18:25.382Z,1.02
2023-01-12T10:20:53.162Z,1.48
2023-01-12T10:23:24.701Z,1.70
2023-01-12T10:26:01.565Z,1.45
2023-01-12T10:28:33.496Z,1.27
2023-01-12T10:31:01.642Z,1.30
2023-01-12T10:33:33.043Z,1.23
2023-01-12T10:36:19.934Z,1.60
2023-01-12T10:38:53.517Z,1.42
2023-01-12T10:41:21.785Z,1.38
2023-01-12T10:44:01.125Z,1.33
2023-01-12T10:46:31.625Z,1.88
2023-01-12T10:49:18.330Z,1.35
2023-01-12T10:51:54.052Z,1.77
2023-01-12T10:54:26.394Z,1.60
2023-01-12T10:56:58.480Z,1.80
2023-01-12T10:59:34.084Z,1.73
2023-01-12T11:02:13.810Z,2.10
2023-01-12T11:04:41.368Z,2.20
2023-01-12T11:07:14.391Z,1.98
2023-01-12T11:09:42.975Z,1.63
2023-01-12T11:12:24.700Z,1.90
2023-01-12T11:15:02.563Z,1.92
2023-01-12T11:17:49.593Z,1.33
2023-01-12T11:20:17.663Z,1.85
2023-01-12T11:22:45.972Z,1.75
2023-01-12T11:25:15.469Z,1.75
2023-01-12T11:27:48.214Z,1.65
2023-01-12T11:30:21.976Z,1.73
2023-01-12T11:32:49.323Z,4.32
2023-01-12T11:35:25.954Z,4.43
2023-01-12T11:37:55.962Z,3.00
2023-01-12T11:40:28.600Z,2.63
2023-01-12T11:43:15.625Z,2.70
2023-01-12T11:45:46.968Z,2.60
2023-01-12T11:48:26.920Z,2.15
2023-01-12T11:50:54.577Z,2.85
2023-01-12T11:53:23.565Z,2.70
2023-01-12T11:55:57.032Z,2.40
2023-01-12T11:58:27.633Z,1.80
2023-01-12T12:01:00.490Z,1.58
2023-01-12T12:03:39.965Z,1.52
2023-01-12T12:06:18.639Z,1.35
2023-01-12T12:08:49.291Z,2.03
2023-01-12T12:11:20.362Z,1.38
2023-01-12T12:13:57.629Z,2.10
2023-01-12T12:16:32.259Z,1.95
2023-01-12T12:19:12.054Z,2.88
2023-01-12T12:21:39.351Z,2.30
2023-01-12T12:24:29.441Z,2.53
2023-01-12T12:26:57.128Z,2.20
2023-01-12T12:29:31.416Z,10.55
2023-01-12T12:32:11.303Z,3.95
2023-01-12T12:34:41.455Z,1.90
2023-01-12T12:37:28.105Z,1.85
2023-01-12T12:40:04.745Z,1.85
2023-01-12T12:43:00.010Z,1.75
2023-01-12T12:45:36.555Z,1.83
2023-01-12T12:48:11.021Z,1.85
2023-01-12T12:50:45.446Z,1.50
2023-01-12T12:53:33.576Z,1.40
2023-01-12T12:56:05.655Z,1.10
2023-01-12T12:58:55.113Z,1.60
2023-01-12T13:01:30.065Z,1.52
2023-01-12T13:03:58.744Z,1.80
2023-01-12T13:06:33.561Z,1.25
2023-01-12T13:09:25.168Z,1.20
2023-01-12T13:12:10.297Z,1.20
2023-01-12T13:14:39.801Z,1.23
2023-01-12T13:17:19.011Z,1.60
2023-01-12T13:19:51.916Z,1.30
2023-01-12T13:22:28.018Z,1.20
2023-01-12T13:24:59.658Z,1.15
2023-01-12T13:27:46.096Z,1.70
2023-01-12T13:30:31.787Z,1.35
2023-01-12T13:33:18.040Z,1.90
2023-01-12T13:35:46.418Z,1.83
2023-01-12T13:38:35.600Z,2.10
2023-01-12T13:41:43.585Z,2.28
2023-01-12T13:44:14.402Z,1.33
2023-01-12T13:46:41.844Z,1.50
2023-01-12T13:49:38.402Z,1.17
2023-01-12T13:52:07.287Z,1.80
2023-01-12T13:54:35.241Z,1.20
2023-01-12T13:57:10.631Z,1.52
2023-01-12T13:59:38.238Z,1.20
2023-01-12T14:02:17.531Z,1.65
2023-01-12T14:04:55.619Z,1.58
2023-01-12T14:07:29.607Z,1.58
2023-01-12T14:09:57.044Z,0.90
2023-01-12T14:12:24.562Z,1.20
2023-01-12T14:15:33.787Z,0.88
2023-01-12T14:18:06.153Z,1.00
2023-01-12T14:20:40.940Z,1.15
2023-01-12T14:23:14.503Z,1.13
2023-01-12T14:25:42.847Z,1.20
2023-01-12T14:28:18.156Z,1.23
2023-01-12T14:30:47.081Z,1.25
2023-01-12T14:33:17.339Z,1.42
2023-01-12T14:35:46.929Z,1.35
2023-01-12T14:38:16.665Z,1.58
2023-01-12T14:40:54.478Z,1.45
2023-01-12T14:43:41.060Z,1.17
2023-01-12T14:46:25.618Z,1.65
2023-01-12T14:48:57.061Z,1.40
2023-01-12T14:51:29.598Z,1.40
2023-01-12T14:54:17.399Z,1.17
2023-01-12T14:56:56.662Z,1.70
2023-01-12T14:59:25.374Z,1.50
2023-01-12T15:01:53.505Z,1.70
2023-01-12T15:04:23.052Z,1.50
2023-01-12T15:07:01.000Z,1.55
2023-01-12T15:09:36.951Z,1.75
2023-01-12T15:12:36.792Z,1.75
2023-01-12T15:15:15.571Z,2.08
2023-01-12T15:18:01.749Z,1.98
2023-01-12T15:20:49.075Z,2.42
2023-01-12T15:23:35.536Z,1.80
2023-01-12T15:26:02.926Z,2.72
2023-01-12T15:28:30.283Z,2.70
2023-01-12T15:30:57.653Z,4.20
2023-01-12T15:33:25.084Z,10.18
2023-01-12T15:35:52.471Z,8.43
2023-01-12T15:38:20.730Z,7.75
2023-01-12T15:40:48.645Z,6.97
2023-01-12T15:43:17.126Z,4.63
2023-01-12T15:45:45.570Z,4.03
2023-01-12T15:48:14.246Z,5.70
2023-01-12T15:50:43.180Z,4.93
2023-01-12T15:53:19.038Z,3.90
2023-01-12T15:55:46.998Z,4.65
2023-01-12T15:58:14.856Z,5.00
2023-01-12T16:00:43.631Z,6.35
2023-01-12T16:03:23.972Z,5.32
2023-01-12T16:05:59.205Z,5.55
2023-01-12T16:08:26.530Z,6.65
2023-01-12T16:11:09.659Z,5.82
2023-01-12T16:13:37.000Z,6.38
2023-01-12T16:16:04.860Z,6.80
2023-01-12T16:18:32.509Z,6.43
2023-01-12T16:21:00.033Z,6.72
2023-01-12T16:23:27.459Z,6.60
2023-01-12T16:26:01.737Z,7.05
2023-01-12T16:28:29.701Z,7.13
2023-01-12T16:30:57.911Z,7.32
2023-01-12T16:33:25.830Z,7.75
2023-01-12T16:35:56.285Z,7.70
2023-01-12T16:38:23.892Z,8.02
2023-01-12T16:40:56.461Z,6.10
2023-01-12T16:43:24.356Z,7.25
2023-01-12T16:45:52.301Z,6.82
2023-01-12T16:48:20.006Z,7.10
2023-01-12T16:50:47.461Z,7.55
2023-01-12T16:53:14.788Z,5.75
2023-01-12T16:55:42.266Z,4.53
2023-01-12T16:58:10.275Z,4.75
2023-01-12T17:00:38.023Z,4.85
2023-01-12T17:03:05.654Z,5.57
2023-01-12T17:05:33.072Z,5.20
2023-01-12T17:08:00.891Z,5.70
2023-01-12T17:10:28.560Z,8.98
2023-01-12T17:12:58.047Z,7.85
2023-01-12T17:15:31.076Z,6.65
2023-01-12T17:17:58.759Z,6.80
2023-01-12T17:20:27.759Z,6.95
2023-01-12T17:22:55.547Z,6.85
2023-01-12T17:25:26.404Z,7.55
2023-01-12T17:27:53.882Z,8.02
2023-01-12T17:30:22.553Z,11.13
2023-01-12T17:32:50.118Z,11.63
2023-01-12T17:35:17.549Z,12.45
2023-01-12T17:37:44.959Z,14.05
2023-01-12T17:40:12.601Z,11.68
2023-01-12T17:42:58.968Z,11.95
2023-01-12T17:45:26.421Z,9.80
2023-01-12T17:47:53.795Z,12.82
2023-01-12T17:50:21.229Z,13.38
2023-01-12T17:52:48.542Z,12.88
2023-01-12T17:55:16.510Z,12.43
2023-01-12T17:57:44.071Z,12.82
2023-01-12T18:00:15.913Z,11.73
2023-01-12T18:02:43.724Z,8.60
2023-01-12T18:05:11.322Z,8.57
2023-01-12T18:07:41.263Z,9.15
2023-01-12T18:10:11.450Z,9.63
2023-01-12T18:12:39.366Z,7.10
2023-01-12T18:15:07.034Z,7.15
2023-01-12T18:17:34.330Z,7.65
2023-01-12T18:20:01.687Z,4.38
2023-01-12T18:22:29.354Z,6.05
2023-01-12T18:24:57.492Z,8.57
2023-01-12T18:27:25.308Z,9.15
2023-01-12T18:29:52.673Z,10.45
2023-01-12T18:32:20.059Z,8.68
2023-01-12T18:34:47.437Z,7.72
2023-01-12T18:37:15.072Z,8.15
2023-01-12T18:39:43.977Z,7.88
2023-01-12T18:42:30.238Z,4.97
2023-01-12T18:44:59.439Z,6.35
2023-01-12T18:47:45.762Z,6.85
2023-01-12T18:50:31.687Z,6.75
2023-01-12T18:53:18.323Z,6.95
2023-01-12T18:55:46.419Z,7.07
2023-01-12T18:58:13.750Z,8.40
2023-01-12T19:00:41.255Z,6.90
2023-01-12T19:03:08.868Z,5.88
2023-01-12T19:05:44.337Z,8.23
2023-01-12T19:08:30.346Z,7.88
2023-01-12T19:11:06.971Z,8.52
2023-01-12T19:13:53.402Z,6.82
2023-01-12T19:16:40.151Z,7.40
2023-01-12T19:19:07.956Z,9.02
2023-01-12T19:21:54.596Z,6.63
2023-01-12T19:24:40.905Z,7.65
2023-01-12T19:27:30.055Z,7.68
2023-01-12T19:29:57.702Z,6.28
2023-01-12T19:32:35.843Z,4.70
2023-01-12T19:35:11.223Z,4.53
2023-01-12T19:37:39.863Z,5.75
2023-01-12T19:40:16.398Z,6.60
2023-01-12T19:43:02.707Z,6.65
2023-01-12T19:45:30.145Z,6.55
2023-01-12T19:47:59.300Z,6.78
2023-01-12T19:50:27.872Z,7.50
2023-01-12T19:52:56.532Z,6.90
2023-01-12T19:55:23.928Z,6.75
2023-01-12T19:57:51.609Z,5.72
2023-01-12T20:00:29.962Z,5.13
2023-01-12T20:02:57.405Z,4.60
2023-01-12T20:05:24.879Z,3.72
2023-01-12T20:07:53.487Z,3.85
2023-01-12T20:10:24.424Z,3.30
2023-01-12T20:12:59.914Z,3.97
2023-01-12T20:15:27.282Z,4.22
2023-01-12T20:17:58.145Z,4.53
2023-01-12T20:20:25.503Z,5.32
2023-01-12T20:22:52.855Z,5.20
2023-01-12T20:25:20.780Z,4.78
2023-01-12T20:27:49.243Z,4.07
2023-01-12T20:30:25.367Z,3.22
2023-01-12T20:33:00.149Z,3.60
2023-01-12T20:35:27.753Z,4.13
2023-01-12T20:37:58.134Z,3.90
2023-01-12T20:40:25.664Z,4.03
2023-01-12T20:42:53.002Z,3.80
2023-01-12T20:45:20.341Z,4.28
2023-01-12T20:47:47.715Z,3.80
2023-01-12T20:50:15.805Z,3.95
2023-01-12T20:52:43.325Z,3.60
2023-01-12T20:55:11.338Z,3.90
2023-01-12T20:57:39.039Z,4.60
2023-01-12T21:00:07.753Z,5.43
2023-01-12T21:02:35.886Z,6.40
2023-01-12T21:05:03.453Z,5.72
2023-01-12T21:07:31.046Z,5.43
2023-01-12T21:09:58.404Z,4.90
2023-01-12T21:12:27.668Z,5.80
2023-01-12T21:14:56.100Z,7.75
2023-01-12T21:17:26.468Z,8.33
2023-01-12T21:19:53.940Z,10.30
2023-01-12T21:22:21.290Z,10.85
2023-01-12T21:24:48.725Z,9.32
2023-01-12T21:27:16.270Z,10.00
2023-01-12T21:29:44.010Z,12.27
2023-01-12T21:32:12.032Z,10.88
2023-01-12T21:34:40.267Z,8.63
2023-01-12T21:37:08.714Z,8.18
2023-01-12T21:39:36.210Z,7.43
2023-01-12T21:42:24.753Z,6.55
2023-01-12T21:44:52.135Z,5.55
2023-01-12T21:47:19.431Z,4.47
2023-01-12T21:49:47.025Z,4.28
2023-01-12T21:52:14.526Z,4.28
2023-01-12T21:54:45.046Z,4.22
2023-01-12T21:57:12.408Z,4.25
2023-01-12T21:59:40.707Z,4.47
2023-01-12T22:02:09.084Z,4.90
2023-01-12T22:04:36.526Z,4.68
2023-01-12T22:07:03.902Z,4.90
2023-01-12T22:09:31.527Z,4.50
2023-01-12T22:11:59.063Z,3.42
2023-01-12T22:14:26.523Z,3.38
2023-01-12T22:16:54.036Z,4.50
2023-01-12T22:19:21.331Z,5.18
2023-01-12T22:21:49.002Z,6.20
2023-01-12T22:24:16.518Z,5.80
2023-01-12T22:26:44.184Z,4.88
2023-01-12T22:29:11.559Z,5.35
2023-01-12T22:31:39.213Z,6.28
2023-01-12T22:34:06.988Z,5.90
2023-01-12T22:36:40.987Z,5.57
2023-01-12T22:39:08.729Z,6.32
2023-01-12T22:41:36.500Z,5.97
2023-01-12T22:44:04.174Z,5.85
2023-01-12T22:46:31.779Z,6.00
2023-01-12T22:49:02.178Z,6.82
2023-01-12T22:51:30.040Z,8.02
2023-01-12T22:53:58.144Z,6.47
2023-01-12T22:56:25.984Z,6.25
2023-01-12T22:58:54.569Z,4.00
2023-01-12T23:01:23.099Z,6.82
2023-01-12T23:03:54.423Z,6.88
2023-01-12T23:06:22.386Z,7.32
2023-01-12T23:08:50.314Z,6.10
2023-01-12T23:11:22.502Z,7.45
2023-01-12T23:16:18.426Z,8.27
2023-01-12T23:18:46.897Z,9.98
2023-01-12T23:21:15.439Z,9.65
2023-01-12T23:23:50.098Z,10.10
2023-01-12T23:26:19.831Z,8.27
2023-01-12T23:28:48.857Z,10.65
2023-01-12T23:31:26.631Z,12.13
2023-01-12T23:33:54.106Z,11.27
2023-01-12T23:36:22.803Z,11.35
2023-01-12T23:38:57.793Z,9.90
2023-01-12T23:41:26.581Z,6.90
2023-01-12T23:43:57.558Z,9.05
2023-01-12T23:46:25.050Z,8.90
2023-01-12T23:48:53.189Z,8.85
2023-01-12T23:51:20.753Z,8.93
2023-01-12T23:53:48.684Z,7.95
2023-01-12T23:56:16.984Z,6.15
2023-01-12T23:58:44.809Z,7.80
